createdAt,value
2022-08-10T00:00:31.782Z,17.33
2022-08-10T00:03:00.469Z,17.23
2022-08-10T00:05:27.783Z,17.06
2022-08-10T00:08:09.854Z,17.21
2022-08-10T00:10:36.587Z,17.14
2022-08-10T00:13:03.368Z,17.18
2022-08-10T00:15:52.373Z,17.05
2022-08-10T00:18:34.508Z,16.78
2022-08-10T00:21:02.812Z,16.90
2022-08-10T00:23:29.494Z,16.85
2022-08-10T00:25:56.100Z,16.83
2022-08-10T00:28:22.772Z,16.89
2022-08-10T00:30:49.550Z,16.86
2022-08-10T00:33:16.454Z,16.83
2022-08-10T00:35:43.130Z,16.86
2022-08-10T00:38:09.995Z,16.77
2022-08-10T00:40:37.632Z,16.72
2022-08-10T00:43:05.841Z,16.66
2022-08-10T00:45:33.034Z,16.77
2022-08-10T00:47:59.612Z,16.62
2022-08-10T00:50:26.334Z,16.50
2022-08-10T00:52:53.327Z,16.26
2022-08-10T00:55:20.046Z,16.32
2022-08-10T00:57:47.262Z,16.35
2022-08-10T01:00:22.827Z,16.19
2022-08-10T01:02:49.538Z,16.06
2022-08-10T01:05:16.548Z,16.14
2022-08-10T01:08:10.535Z,15.83
2022-08-10T01:11:01.367Z,16.15
2022-08-10T01:13:36.049Z,15.93
2022-08-10T01:16:20.981Z,16.15
2022-08-10T01:19:04.106Z,16.00
2022-08-10T01:21:36.336Z,15.89
2022-08-10T01:24:08.812Z,15.77
2022-08-10T01:27:04.062Z,15.69
2022-08-10T01:29:49.981Z,15.83
2022-08-10T01:32:23.295Z,15.87
2022-08-10T01:34:55.206Z,15.79
2022-08-10T01:37:26.762Z,15.74
2022-08-10T01:39:58.761Z,15.65
2022-08-10T01:42:28.490Z,15.72
2022-08-10T01:45:04.213Z,15.62
2022-08-10T01:47:53.940Z,15.72
2022-08-10T01:50:59.969Z,15.60
2022-08-10T01:53:41.281Z,15.45
2022-08-10T01:56:12.319Z,15.53
2022-08-10T01:58:40.235Z,15.38
2022-08-10T02:01:11.117Z,15.34
2022-08-10T02:04:02.229Z,15.23
2022-08-10T02:06:40.099Z,15.29
2022-08-10T02:09:08.344Z,15.18
2022-08-10T02:11:55.588Z,14.87
2022-08-10T02:14:33.384Z,15.12
2022-08-10T02:17:59.625Z,15.22
2022-08-10T02:20:05.480Z,15.03
2022-08-10T02:22:38.134Z,15.09
2022-08-10T02:25:40.647Z,14.99
2022-08-10T02:28:05.202Z,15.00
2022-08-10T02:30:33.686Z,15.09
2022-08-10T02:33:02.559Z,15.06
2022-08-10T02:35:38.422Z,14.98
2022-08-10T02:38:21.807Z,14.98
2022-08-10T02:45:02.366Z,14.74
2022-08-10T02:45:29.344Z,14.95
2022-08-10T02:46:48.830Z,14.75
2022-08-10T02:49:22.910Z,14.61
2022-08-10T02:52:07.023Z,14.59
2022-08-10T02:54:38.788Z,14.62
2022-08-10T02:57:27.458Z,14.72
2022-08-10T02:59:57.556Z,14.47
2022-08-10T03:02:35.193Z,14.63
2022-08-10T03:05:06.772Z,14.54
2022-08-10T03:07:44.381Z,14.56
2022-08-10T03:10:24.743Z,14.36
2022-08-10T03:12:57.857Z,14.33
2022-08-10T03:15:25.358Z,14.47
2022-08-10T03:17:58.357Z,14.22
2022-08-10T03:20:41.877Z,14.30
2022-08-10T03:23:18.034Z,14.39
2022-08-10T03:25:53.263Z,14.46
2022-08-10T03:28:30.402Z,14.27
2022-08-10T03:30:59.279Z,14.14
2022-08-10T03:33:29.344Z,13.89
2022-08-10T03:36:41.599Z,14.08
2022-08-10T03:38:46.174Z,14.05
2022-08-10T03:41:16.111Z,14.08
2022-08-10T03:43:47.852Z,14.14
2022-08-10T03:46:18.150Z,14.06
2022-08-10T03:48:49.204Z,14.06
2022-08-10T03:51:18.880Z,14.00
2022-08-10T03:54:06.043Z,14.12
2022-08-10T03:56:34.950Z,14.00
2022-08-10T03:59:02.243Z,13.95
2022-08-10T04:02:45.457Z,13.94
2022-08-10T04:04:22.842Z,13.95
2022-08-10T04:06:54.684Z,13.97
2022-08-10T04:09:23.221Z,13.90
2022-08-10T04:11:49.887Z,13.86
2022-08-10T04:14:35.676Z,13.93
2022-08-10T04:17:03.110Z,13.86
2022-08-10T04:19:36.965Z,14.00
2022-08-10T04:22:08.872Z,14.06
2022-08-10T04:24:38.116Z,14.06
2022-08-10T04:27:05.285Z,14.07
2022-08-10T04:29:32.657Z,13.91
2022-08-10T04:32:01.412Z,13.83
2022-08-10T04:34:31.958Z,14.03
2022-08-10T04:37:08.830Z,14.06
2022-08-10T04:39:36.213Z,14.05
2022-08-10T04:42:03.905Z,14.10
2022-08-10T04:44:31.089Z,14.15
2022-08-10T04:46:59.281Z,14.16
2022-08-10T04:49:56.485Z,14.46
2022-08-10T04:52:13.732Z,14.59
2022-08-10T04:54:40.389Z,14.66
2022-08-10T04:57:08.954Z,14.83
2022-08-10T04:59:35.671Z,14.84
2022-08-10T05:02:30.356Z,15.08
2022-08-10T05:04:49.583Z,15.09
2022-08-10T05:07:18.478Z,14.70
2022-08-10T05:10:01.193Z,14.86
2022-08-10T05:12:34.495Z,15.29
2022-08-10T05:15:05.464Z,16.25
2022-08-10T05:17:32.062Z,17.76
2022-08-10T05:20:03.608Z,18.35
2022-08-10T05:22:34.137Z,19.37
2022-08-10T05:25:00.889Z,19.78
2022-08-10T05:27:27.522Z,20.16
2022-08-10T05:30:01.627Z,20.59
2022-08-10T05:32:31.205Z,20.73
2022-08-10T05:34:57.960Z,21.01
2022-08-10T05:38:10.203Z,21.37
2022-08-10T05:40:12.502Z,21.77
2022-08-10T05:42:40.933Z,22.48
2022-08-10T05:45:15.513Z,22.72
2022-08-10T05:48:54.321Z,23.11
2022-08-10T05:50:34.790Z,23.13
2022-08-10T05:53:59.051Z,23.46
2022-08-10T05:55:48.528Z,23.89
2022-08-10T05:58:15.189Z,24.30
2022-08-10T06:00:49.905Z,24.14
2022-08-10T06:03:23.942Z,24.18
2022-08-10T06:05:53.858Z,24.16
2022-08-10T06:08:24.128Z,24.52
2022-08-10T06:12:25.694Z,24.72
2022-08-10T06:14:13.068Z,24.98
2022-08-10T06:16:42.429Z,25.13
2022-08-10T06:19:10.763Z,25.14
2022-08-10T06:21:38.831Z,24.86
2022-08-10T06:24:25.585Z,24.73
2022-08-10T06:26:58.226Z,24.90
2022-08-10T06:29:26.772Z,24.94
2022-08-10T06:31:54.016Z,24.95
2022-08-10T06:34:26.025Z,25.11
2022-08-10T06:36:55.283Z,25.37
2022-08-10T06:39:38.306Z,25.42
2022-08-10T06:42:15.847Z,25.52
2022-08-10T06:44:58.486Z,25.58
2022-08-10T06:47:46.682Z,25.78
2022-08-10T06:50:34.510Z,26.00
2022-08-10T06:53:10.652Z,25.57
2022-08-10T06:55:55.542Z,25.84
2022-08-10T06:58:26.958Z,25.84
2022-08-10T07:00:55.675Z,26.19
2022-08-10T07:03:28.855Z,26.50
2022-08-10T07:05:56.311Z,26.52
2022-08-10T07:08:24.425Z,26.72
2022-08-10T07:10:53.191Z,26.92
2022-08-10T07:14:14.607Z,26.54
2022-08-10T07:16:11.506Z,26.87
2022-08-10T07:18:39.363Z,26.86
2022-08-10T07:21:08.083Z,26.65
2022-08-10T07:23:57.053Z,26.48
2022-08-10T07:26:23.064Z,26.77
2022-08-10T07:28:51.158Z,26.90
2022-08-10T07:31:54.938Z,26.94
2022-08-10T07:34:09.433Z,26.80
2022-08-10T07:36:37.966Z,27.16
2022-08-10T07:39:06.329Z,27.07
2022-08-10T07:41:34.836Z,27.15
2022-08-10T07:44:04.630Z,27.31
2022-08-10T07:46:33.545Z,27.32
2022-08-10T07:49:19.560Z,27.19
2022-08-10T07:51:55.012Z,27.72
2022-08-10T07:54:25.302Z,27.85
2022-08-10T07:56:55.680Z,27.68
2022-08-10T07:59:36.857Z,27.53
2022-08-10T08:02:06.510Z,28.05
2022-08-10T08:04:34.194Z,27.82
2022-08-10T08:07:04.496Z,27.83
2022-08-10T08:09:32.429Z,27.90
2022-08-10T08:12:00.052Z,28.03
2022-08-10T08:14:27.514Z,28.01
2022-08-10T08:16:56.416Z,28.07
2022-08-10T08:19:26.653Z,28.64
2022-08-10T08:24:06.313Z,28.62
2022-08-10T08:24:44.382Z,28.50
2022-08-10T08:27:15.317Z,28.87
2022-08-10T08:29:45.606Z,28.82
2022-08-10T08:32:13.397Z,28.70
2022-08-10T08:34:43.670Z,29.22
2022-08-10T08:38:26.489Z,29.16
2022-08-10T08:40:04.319Z,29.12
2022-08-10T08:42:48.554Z,29.07
2022-08-10T08:45:49.168Z,29.12
2022-08-10T08:48:46.279Z,28.95
2022-08-10T08:52:09.464Z,29.14
2022-08-10T08:54:34.250Z,29.20
2022-08-10T08:57:22.937Z,28.97
2022-08-10T09:00:14.510Z,28.86
2022-08-10T09:03:00.560Z,29.05
2022-08-10T09:06:00.243Z,28.92
2022-08-10T09:08:42.501Z,28.53
2022-08-10T09:11:27.384Z,28.89
2022-08-10T09:14:12.779Z,29.20
2022-08-10T09:16:53.751Z,28.88
2022-08-10T09:19:47.485Z,28.80
2022-08-10T09:22:40.263Z,28.94
2022-08-10T09:25:18.459Z,28.50
2022-08-10T09:28:06.842Z,29.15
2022-08-10T09:31:23.183Z,29.34
2022-08-10T09:36:24.064Z,29.14
2022-08-10T09:37:42.480Z,29.01
2022-08-10T09:41:01.302Z,29.61
2022-08-10T09:43:48.558Z,29.23
2022-08-10T09:46:36.711Z,29.43
2022-08-10T09:49:25.818Z,29.57
2022-08-10T09:52:08.160Z,29.59
2022-08-10T09:55:05.853Z,29.46
2022-08-10T09:57:46.284Z,29.53
2022-08-10T10:00:19.425Z,29.59
2022-08-10T10:03:12.530Z,29.51
2022-08-10T10:05:52.164Z,28.95
2022-08-10T10:08:28.182Z,28.11
2022-08-10T10:11:07.640Z,28.10
2022-08-10T10:14:12.351Z,28.16
2022-08-10T10:16:47.675Z,28.30
2022-08-10T10:19:43.593Z,28.83
2022-08-10T10:22:12.874Z,28.98
2022-08-10T10:24:52.266Z,28.33
2022-08-10T10:27:57.039Z,28.36
2022-08-10T10:30:31.089Z,27.96
2022-08-10T10:33:13.281Z,27.62
2022-08-10T10:35:47.969Z,27.57
2022-08-10T10:38:18.364Z,27.59
2022-08-10T10:41:07.156Z,27.99
2022-08-10T10:43:42.732Z,28.18
2022-08-10T10:46:57.597Z,27.62
2022-08-10T10:49:42.832Z,27.52
2022-08-10T10:52:39.175Z,28.30
2022-08-10T10:55:16.349Z,28.58
2022-08-10T10:58:05.036Z,28.78
2022-08-10T11:00:44.907Z,29.13
2022-08-10T11:03:42.330Z,29.44
2022-08-10T11:06:45.594Z,29.03
2022-08-10T11:10:05.480Z,29.76
2022-08-10T11:12:37.231Z,29.87
2022-08-10T11:15:16.118Z,30.11
2022-08-10T11:17:56.482Z,29.64
2022-08-10T11:21:00.665Z,29.73
2022-08-10T11:24:46.921Z,28.86
2022-08-10T11:26:50.356Z,28.69
2022-08-10T11:29:25.699Z,28.90
2022-08-10T11:32:04.533Z,29.12
2022-08-10T11:34:48.786Z,28.87
2022-08-10T11:38:30.998Z,29.52
2022-08-10T11:40:49.315Z,29.85
2022-08-10T11:43:27.213Z,29.94
2022-08-10T11:46:19.400Z,29.72
2022-08-10T11:49:02.076Z,30.03
2022-08-10T11:51:43.979Z,30.06
2022-08-10T11:54:21.773Z,29.73
2022-08-10T11:56:58.551Z,29.65
2022-08-10T11:59:58.058Z,29.73
2022-08-10T12:02:56.943Z,29.69
2022-08-10T12:05:52.289Z,29.96
2022-08-10T12:10:09.042Z,30.12
2022-08-10T12:11:24.203Z,29.97
2022-08-10T12:14:23.375Z,29.77
2022-08-10T12:17:02.251Z,30.12
2022-08-10T12:19:59.080Z,29.53
2022-08-10T12:22:33.354Z,29.46
2022-08-10T12:25:07.599Z,28.93
2022-08-10T12:27:34.112Z,28.66
2022-08-10T12:30:09.836Z,29.01
2022-08-10T12:32:49.152Z,29.22
2022-08-10T12:35:26.778Z,29.64
2022-08-10T12:38:06.894Z,29.53
2022-08-10T12:40:40.022Z,29.40
2022-08-10T12:44:07.395Z,29.27
2022-08-10T12:46:26.257Z,29.89
2022-08-10T12:49:01.803Z,30.04
2022-08-10T12:51:31.294Z,29.66
2022-08-10T12:54:14.487Z,29.20
2022-08-10T12:56:47.048Z,29.35
2022-08-10T12:59:14.904Z,29.40
2022-08-10T13:02:07.771Z,29.67
2022-08-10T13:04:35.462Z,30.11
2022-08-10T13:07:04.535Z,29.89
2022-08-10T13:09:33.290Z,30.08
2022-08-10T13:12:38.911Z,29.40
2022-08-10T13:15:28.280Z,29.90
2022-08-10T13:18:18.306Z,29.61
2022-08-10T13:20:51.619Z,29.77
2022-08-10T13:23:25.061Z,29.81
2022-08-10T13:25:55.005Z,29.63
2022-08-10T13:28:36.128Z,29.98
2022-08-10T13:31:16.233Z,29.80
2022-08-10T13:34:39.914Z,29.71
2022-08-10T13:36:46.436Z,30.10
2022-08-10T13:39:17.120Z,29.97
2022-08-10T13:41:46.278Z,29.92
2022-08-10T13:44:29.815Z,29.76
2022-08-10T13:46:57.291Z,30.13
2022-08-10T13:49:24.452Z,29.67
2022-08-10T13:51:53.897Z,29.94
2022-08-10T13:54:36.097Z,29.87
2022-08-10T13:57:04.870Z,30.08
2022-08-10T14:00:37.380Z,30.21
2022-08-10T14:02:28.802Z,30.16
2022-08-10T14:04:57.753Z,30.10
2022-08-10T14:07:27.105Z,29.97
2022-08-10T14:10:02.025Z,29.87
2022-08-10T14:12:31.884Z,29.59
2022-08-10T14:15:01.240Z,29.06
2022-08-10T14:17:28.707Z,29.08
2022-08-10T14:20:10.540Z,28.88
2022-08-10T14:22:39.640Z,28.79
2022-08-10T14:25:08.897Z,28.80
2022-08-10T14:28:01.563Z,28.82
2022-08-10T14:30:30.922Z,29.33
2022-08-10T14:33:00.379Z,29.38
2022-08-10T14:36:19.627Z,29.51
2022-08-10T14:38:19.649Z,29.47
2022-08-10T14:40:52.551Z,29.38
2022-08-10T14:43:28.529Z,29.28
2022-08-10T14:46:04.038Z,29.04
2022-08-10T14:48:41.567Z,28.88
2022-08-10T14:51:11.308Z,28.77
2022-08-10T14:53:41.119Z,28.91
2022-08-10T14:56:17.315Z,28.81
2022-08-10T14:59:06.262Z,29.34
2022-08-10T15:02:00.809Z,29.50
2022-08-10T15:04:25.974Z,29.60
2022-08-10T15:07:12.184Z,29.60
2022-08-10T15:10:00.921Z,29.77
2022-08-10T15:12:33.846Z,29.55
2022-08-10T15:15:02.493Z,29.32
2022-08-10T15:17:35.111Z,29.14
2022-08-10T15:20:13.622Z,29.07
2022-08-10T15:22:47.588Z,28.77
2022-08-10T15:25:25.222Z,28.59
2022-08-10T15:28:04.952Z,28.63
2022-08-10T15:30:42.723Z,28.69
2022-08-10T15:34:03.651Z,28.66
2022-08-10T15:36:40.188Z,28.40
2022-08-10T15:40:21.941Z,28.29
2022-08-10T15:42:17.530Z,28.34
2022-08-10T15:44:46.978Z,27.99
2022-08-10T15:47:46.174Z,28.43
2022-08-10T15:50:23.429Z,28.41
2022-08-10T15:53:00.890Z,28.25
2022-08-10T15:55:43.452Z,28.46
2022-08-10T15:58:39.721Z,28.46
2022-08-10T16:02:13.418Z,28.71
2022-08-10T16:04:35.407Z,28.48
2022-08-10T16:07:06.720Z,28.51
2022-08-10T16:10:24.332Z,28.41
2022-08-10T16:12:38.359Z,28.37
2022-08-10T16:15:17.955Z,28.34
2022-08-10T16:17:54.556Z,28.37
2022-08-10T16:20:32.384Z,28.35
2022-08-10T16:23:05.675Z,28.42
2022-08-10T16:25:51.600Z,28.14
2022-08-10T16:28:23.899Z,28.23
2022-08-10T16:30:55.813Z,27.99
2022-08-10T16:33:27.601Z,27.99
2022-08-10T16:36:16.773Z,27.82
2022-08-10T16:38:49.091Z,27.87
2022-08-10T16:42:00.409Z,27.92
2022-08-10T16:44:06.964Z,28.32
2022-08-10T16:46:34.836Z,28.39
2022-08-10T16:49:03.096Z,28.34
2022-08-10T16:51:30.805Z,28.36
2022-08-10T16:54:01.590Z,28.17
2022-08-10T16:56:48.816Z,28.18
2022-08-10T16:59:20.815Z,27.75
2022-08-10T17:01:54.265Z,27.67
2022-08-10T17:04:23.586Z,28.06
2022-08-10T17:06:59.326Z,27.87
2022-08-10T17:09:37.489Z,27.54
2022-08-10T17:12:11.628Z,27.28
2022-08-10T17:14:41.549Z,27.33
2022-08-10T17:17:20.935Z,27.15
2022-08-10T17:19:48.959Z,27.28
2022-08-10T17:22:20.818Z,27.08
2022-08-10T17:24:55.179Z,27.10
2022-08-10T17:28:05.881Z,27.21
2022-08-10T17:30:15.819Z,27.05
2022-08-10T17:32:56.143Z,27.03
2022-08-10T17:35:27.578Z,26.87
2022-08-10T17:37:55.798Z,26.90
2022-08-10T17:40:24.945Z,26.89
2022-08-10T17:42:54.417Z,27.05
2022-08-10T17:45:48.851Z,26.87
2022-08-10T17:48:11.934Z,26.90
2022-08-10T17:50:41.832Z,26.65
2022-08-10T17:53:16.204Z,26.52
2022-08-10T17:55:46.010Z,26.44
2022-08-10T17:58:16.118Z,26.47
2022-08-10T18:00:45.059Z,26.41
2022-08-10T18:03:25.635Z,26.28
2022-08-10T18:06:02.233Z,26.19
2022-08-10T18:08:32.283Z,26.16
2022-08-10T18:11:00.371Z,25.98
2022-08-10T18:13:56.397Z,25.93
2022-08-10T18:16:24.143Z,25.90
2022-08-10T18:18:58.399Z,25.65
2022-08-10T18:21:30.873Z,25.52
2022-08-10T18:24:14.176Z,25.26
2022-08-10T18:26:45.017Z,25.17
2022-08-10T18:29:22.958Z,24.89
2022-08-10T18:31:56.714Z,25.01
2022-08-10T18:34:24.646Z,25.09
2022-08-10T18:36:53.021Z,24.94
2022-08-10T18:39:27.934Z,24.71
2022-08-10T18:42:05.725Z,24.56
2022-08-10T18:44:37.353Z,24.59
2022-08-10T18:47:12.786Z,24.50
2022-08-10T18:49:46.633Z,24.44
2022-08-10T18:52:15.969Z,24.32
2022-08-10T18:54:51.005Z,24.11
2022-08-10T18:57:47.202Z,24.05
2022-08-10T19:00:20.124Z,24.12
2022-08-10T19:02:50.936Z,24.18
2022-08-10T19:05:45.323Z,24.11
2022-08-10T19:08:33.439Z,23.93
2022-08-10T19:11:47.823Z,23.88
2022-08-10T19:14:30.619Z,23.88
2022-08-10T19:17:21.490Z,23.77
2022-08-10T19:19:58.353Z,23.75
2022-08-10T19:22:32.515Z,23.65
2022-08-10T19:25:14.980Z,23.48
2022-08-10T19:28:03.557Z,23.39
2022-08-10T19:30:50.284Z,23.21
2022-08-10T19:33:42.706Z,23.03
2022-08-10T19:36:45.059Z,23.02
2022-08-10T19:39:18.382Z,22.94
2022-08-10T19:41:54.532Z,22.90
2022-08-10T19:44:57.987Z,22.92
2022-08-10T19:47:28.987Z,22.74
2022-08-10T19:50:04.448Z,22.33
2022-08-10T19:52:37.217Z,22.40
2022-08-10T19:55:12.445Z,22.34
2022-08-10T19:57:54.301Z,22.53
2022-08-10T20:00:26.933Z,22.34
2022-08-10T20:03:12.283Z,22.13
2022-08-10T20:06:13.425Z,22.23
2022-08-10T20:08:48.160Z,22.13
2022-08-10T20:11:44.346Z,21.94
2022-08-10T20:14:36.730Z,21.68
2022-08-10T20:17:29.388Z,21.47
2022-08-10T20:20:31.020Z,21.49
2022-08-10T20:23:08.966Z,21.62
2022-08-10T20:25:35.825Z,21.49
2022-08-10T20:28:15.309Z,21.24
2022-08-10T20:30:52.071Z,21.37
2022-08-10T20:33:32.304Z,21.31
2022-08-10T20:36:16.235Z,21.12
2022-08-10T20:38:54.687Z,20.80
2022-08-10T20:41:33.038Z,21.04
2022-08-10T20:44:29.134Z,20.91
2022-08-10T20:47:14.067Z,21.10
2022-08-10T20:49:49.963Z,21.04
2022-08-10T20:52:16.778Z,20.78
2022-08-10T20:54:56.353Z,20.64
2022-08-10T20:57:56.234Z,20.46
2022-08-10T21:00:49.455Z,20.59
2022-08-10T21:03:21.182Z,20.63
2022-08-10T21:06:24.078Z,20.55
2022-08-10T21:09:00.928Z,20.43
2022-08-10T21:11:49.655Z,20.36
2022-08-10T21:14:22.438Z,20.39
2022-08-10T21:17:06.134Z,20.35
2022-08-10T21:19:55.409Z,20.28
2022-08-10T21:22:29.528Z,20.19
2022-08-10T21:25:02.298Z,20.24
2022-08-10T21:27:55.308Z,20.09
2022-08-10T21:31:02.396Z,19.84
2022-08-10T21:33:42.311Z,19.76
2022-08-10T21:36:22.945Z,19.81
2022-08-10T21:39:02.585Z,19.81
2022-08-10T21:42:05.401Z,19.72
2022-08-10T21:45:18.739Z,19.60
2022-08-10T21:48:38.045Z,19.61
2022-08-10T21:54:53.888Z,19.46
2022-08-10T21:58:28.351Z,19.41
2022-08-10T22:01:24.563Z,19.41
2022-08-10T22:04:24.738Z,19.31
2022-08-10T22:07:11.178Z,19.25
2022-08-10T22:10:03.940Z,19.31
2022-08-10T22:12:58.628Z,19.32
2022-08-10T22:16:05.690Z,19.12
2022-08-10T22:18:59.508Z,19.15
2022-08-10T22:21:47.978Z,19.08
2022-08-10T22:24:41.462Z,18.93
2022-08-10T22:27:50.177Z,18.73
2022-08-10T22:30:37.993Z,18.97
2022-08-10T22:31:25.378Z,19.55
2022-08-10T22:33:44.965Z,18.82
2022-08-10T22:36:51.895Z,18.94
2022-08-10T22:40:11.513Z,18.84
2022-08-10T22:43:10.472Z,18.78
2022-08-10T22:46:02.936Z,18.72
2022-08-10T22:48:48.125Z,18.71
2022-08-10T22:51:23.507Z,18.60
2022-08-10T22:54:30.433Z,18.62
2022-08-10T22:57:18.808Z,18.63
2022-08-10T22:59:45.826Z,18.71
2022-08-10T23:02:28.599Z,18.57
2022-08-10T23:05:05.612Z,18.52
2022-08-10T23:07:36.023Z,18.73
2022-08-10T23:10:10.627Z,18.68
2022-08-10T23:13:02.630Z,18.63
2022-08-10T23:15:54.048Z,18.79
2022-08-10T23:18:55.074Z,18.66
2022-08-10T23:21:26.261Z,18.85
2022-08-10T23:24:14.600Z,18.67
2022-08-10T23:26:43.997Z,18.62
2022-08-10T23:29:14.571Z,18.56
2022-08-10T23:31:50.409Z,18.52
2022-08-10T23:34:35.204Z,18.40
2022-08-10T23:37:04.171Z,18.40
2022-08-10T23:39:40.843Z,18.39
2022-08-10T23:42:10.598Z,18.41
2022-08-10T23:44:43.316Z,18.26
2022-08-10T23:47:13.837Z,18.12
2022-08-10T23:49:43.220Z,18.02
2022-08-10T23:52:12.826Z,17.97
2022-08-10T23:54:48.681Z,17.95
2022-08-10T23:57:21.736Z,18.05
2022-08-10T23:59:55.631Z,17.91
